CST,Max TemperatureF,Mean TemperatureF,Min TemperatureF,Max Dew PointF,MeanDew PointF,Min DewpointF,Max Humidity, Mean Humidity, Min Humidity, Max Sea Level PressureIn, Mean Sea Level PressureIn, Min Sea Level PressureIn, Max VisibilityMiles, Mean VisibilityMiles, Min VisibilityMiles, Max Wind SpeedMPH, Mean Wind SpeedMPH, Max Gust SpeedMPH,PrecipitationIn, CloudCover, Events, WindDirDegrees
2013-1-1,11,1,-9,7,-3,-13,90,76,57,30.12,30.05,29.97,10,10,10,14,5,16,0.00,3,Snow,282
2013-1-2,20,16,11,12,10,7,93,80,66,30.01,29.97,29.94,10,9,4,12,7,,0.00,7,Snow,197
2013-1-3,20,14,9,17,12,6,89,84,78,30.05,30.00,29.93,10,8,5,21,10,24,0.00,7,Snow,279
2013-1-4,28,18,8,17,12,6,94,80,63,30.09,29.97,29.88,10,10,4,18,13,25,0.00,1,Snow,266
2013-1-5,26,14,2,18,13,-1,95,84,69,30.10,29.93,29.79,10,10,4,10,4,,0.00,1,,169
2013-1-6,27,18,9,22,17,7,95,83,69,30.15,30.01,29.79,10,10,4,14,8,16,0.00,5,Snow,296
2013-1-7,33,20,8,23,16,5,94,77,63,30.12,29.93,29.83,10,10,4,24,11,32,0.00,0,,225
2013-1-8,32,19,6,31,19,4,99,89,75,30.02,29.93,29.78,10,5,0,18,5,24,0.00,5,Fog,165
2013-1-9,34,23,12,29,22,10,92,76,59,30.37,30.04,29.76,10,10,10,26,16,36,0.00,4,,265
2013-1-10,34,22,10,32,20,8,99,80,54,30.42,30.22,29.85,10,9,2,21,6,26,0.03,2,Snow,141
2013-1-11,38,35,32,38,34,32,100,100,99,29.85,29.62,29.49,10,1,0,15,10,21,0.03,8,Fog-Rain-Snow,163
2013-1-12,40,26,13,40,24,8,100,84,75,29.93,29.69,29.45,10,9,0,29,15,38,0.00,8,Fog-Snow,244
2013-1-13,16,10,4,10,7,-1,81,76,72,30.08,29.92,29.86,10,9,4,17,9,23,0.00,8,Snow,303
2013-1-14,14,7,0,6,2,-3,87,79,66,30.29,30.24,30.08,10,10,2,16,9,23,0.00,3,Snow,264
2013-1-15,25,14,2,13,8,0,89,75,58,30.29,30.13,29.89,10,10,10,16,7,22,0.00,3,,214
2013-1-16,27,20,13,24,15,4,94,77,62,30.02,29.74,29.59,10,8,2,20,14,28,0.00,5,Snow,269
2013-1-17,13,6,0,4,-2,-6,82,66,49,30.27,30.19,30.02,10,10,10,17,10,22,0.00,2,,302
2013-1-18,30,15,0,27,12,-4,92,83,71,30.28,29.92,29.68,10,9,1,16,5,21,0.00,5,Snow,183
2013-1-19,37,20,3,31,21,-5,95,83,58,29.82,29.63,29.49,10,8,0,32,10,47,0.00,6,Snow,264
2013-1-20,6,1,-4,-4,-8,-10,78,67,48,30.16,30.07,29.83,10,10,10,26,16,33,0.00,1,,292
2013-1-21,-3,-8,-14,-9,-18,-24,81,67,53,30.11,30.04,29.99,10,10,5,20,12,26,0.00,4,,296
2013-1-22,-1,-9,-17,-14,-18,-23,77,67,52,30.20,30.16,30.10,10,10,10,13,9,17,0.00,0,,279
2013-1-23,9,-1,-11,4,-7,-17,84,75,63,30.36,30.10,29.96,10,8,1,18,8,26,0.00,5,Snow,291
2013-1-24,8,-2,-12,2,-8,-17,85,72,51,30.55,30.43,30.26,10,9,2,9,6,,0.00,2,Snow,296
2013-1-25,16,9,2,11,6,0,90,85,76,30.24,29.98,29.83,10,6,1,13,8,23,0.00,7,Snow,236
2013-1-26,19,5,-9,11,3,-14,91,79,61,30.29,30.22,30.09,10,10,10,13,5,20,0.00,2,,236
2013-1-27,29,22,16,29,18,10,99,84,71,30.22,30.07,29.82,10,6,0,15,10,22,0.02,7,Snow,146
2013-1-28,33,28,24,30,28,23,99,93,80,29.89,29.82,29.75,10,8,2,15,6,18,0.00,7,Snow,172
2013-1-29,36,32,28,36,32,28,100,97,89,29.75,29.54,29.46,10,5,0,18,11,23,0.06,8,Fog,77
2013-1-30,30,21,11,28,17,7,93,87,78,29.53,29.40,29.30,10,5,1,24,16,31,0.02,8,Snow,348
2013-1-31,11,5,-1,8,0,-7,85,75,64,29.95,29.69,29.46,10,9,2,18,14,26,0.00,5,Snow,297